Time;durP1;ratioP1;P1;durP2;ratioP2;P2;SDS_P1;SDS_P2;PMS_P1;PMS_P2;Temp;Humidity;BMP_temperature;BMP_pressure;BME280_temperature;BME280_humidity;BME280_pressure;Samples;Min_cycle;Max_cycle;Signal;HPM_P1;HPM_P2
2022/05/13 00:00:43;;;;;;;;;;;13.60;69.20;;;;;;5006162;28;19921;-82
2022/05/13 00:03:08;;;;;;;;;;;13.60;69.80;;;;;;5005643;28;19969;-81
2022/05/13 00:05:33;;;;;;;;;;;13.60;70.20;;;;;;5012711;28;20007;-81
2022/05/13 00:07:59;;;;;;;;;;;13.60;69.70;;;;;;5025686;28;19921;-80
2022/05/13 00:10:24;;;;;;;;;;;13.60;70.50;;;;;;5016382;28;19913;-81
2022/05/13 00:12:51;;;;;;;;;;;13.50;70.50;;;;;;4995366;28;20378;-82
2022/05/13 00:15:18;;;;;;;;;;;13.50;70.20;;;;;;5007196;28;20013;-81
2022/05/13 00:17:43;;;;;;;;;;;13.50;70.20;;;;;;5005133;28;19913;-82
2022/05/13 00:20:09;;;;;;;;;;;13.50;70.30;;;;;;4993464;28;19924;-82
2022/05/13 00:22:41;;;;;;;;;;;13.50;70.40;;;;;;5008736;28;19940;-81
2022/05/13 00:25:07;;;;;;;;;;;13.50;70.60;;;;;;5005418;28;19917;-80
2022/05/13 00:27:32;;;;;;;;;;;13.60;71.00;;;;;;5005098;28;19917;-81
2022/05/13 00:29:58;;;;;;;;;;;13.70;70.60;;;;;;5007307;28;20159;-81
2022/05/13 00:32:23;;;;;;;;;;;13.70;71.10;;;;;;5017905;28;19933;-81
2022/05/13 00:34:49;;;;;;;;;;;13.80;70.50;;;;;;5009177;28;20310;-81
2022/05/13 00:37:14;;;;;;;;;;;13.80;70.80;;;;;;5004052;28;19914;-81
2022/05/13 00:39:40;;;;;;;;;;;13.80;70.10;;;;;;5011128;28;19917;-81
2022/05/13 00:42:14;;;;;;;;;;;13.80;68.60;;;;;;5010024;28;19996;-81
2022/05/13 00:44:40;;;;;;;;;;;13.70;68.50;;;;;;5015511;28;19945;-82
2022/05/13 00:47:06;;;;;;;;;;;13.60;68.60;;;;;;5002318;28;19921;-81
2022/05/13 00:49:31;;;;;;;;;;;13.60;69.20;;;;;;5010180;28;19925;-81
2022/05/13 00:51:57;;;;;;;;;;;13.60;69.90;;;;;;5011515;28;19923;-81
2022/05/13 00:54:23;;;;;;;;;;;13.50;70.70;;;;;;5017398;28;19914;-81
2022/05/13 00:56:48;;;;;;;;;;;13.50;69.70;;;;;;5021372;28;19913;-81
2022/05/13 00:59:16;;;;;;;;;;;13.40;70.60;;;;;;5014478;28;20357;-79
2022/05/13 01:01:41;;;;;;;;;;;13.40;71.10;;;;;;5010254;28;19920;-80
2022/05/13 01:04:08;;;;;;;;;;;13.40;71.60;;;;;;5011146;28;19913;-79
2022/05/13 01:06:33;;;;;;;;;;;13.40;71.40;;;;;;4996685;28;20393;-79
2022/05/13 01:08:59;;;;;;;;;;;13.30;71.50;;;;;;5013968;28;20050;-80
2022/05/13 01:11:26;;;;;;;;;;;13.50;71.30;;;;;;5012818;28;19925;-80
2022/05/13 01:13:56;;;;;;;;;;;13.50;71.60;;;;;;5009498;28;19914;-79
2022/05/13 01:16:22;;;;;;;;;;;13.50;70.50;;;;;;5009584;28;20622;-79
2022/05/13 01:18:47;;;;;;;;;;;13.50;70.50;;;;;;5020558;28;19913;-79
2022/05/13 01:21:18;;;;;;;;;;;13.50;71.10;;;;;;5012284;28;19992;-79
2022/05/13 01:23:44;;;;;;;;;;;13.50;71.70;;;;;;5010693;28;19913;-79
2022/05/13 01:26:11;;;;;;;;;;;13.50;70.40;;;;;;5011112;28;19920;-80
2022/05/13 01:28:41;;;;;;;;;;;13.40;69.60;;;;;;5018641;28;19921;-79
2022/05/13 01:31:09;;;;;;;;;;;13.20;69.90;;;;;;5015582;28;19978;-79
2022/05/13 01:33:35;;;;;;;;;;;13.30;70.60;;;;;;5002745;28;20532;-79
2022/05/13 01:36:02;;;;;;;;;;;13.10;71.50;;;;;;5025016;28;19964;-79
2022/05/13 01:38:29;;;;;;;;;;;13.10;71.50;;;;;;5009778;28;19913;-80
2022/05/13 01:40:55;;;;;;;;;;;13.10;71.90;;;;;;5016324;28;19959;-79
2022/05/13 01:43:21;;;;;;;;;;;13.10;71.10;;;;;;5009862;28;20009;-79
2022/05/13 01:45:47;;;;;;;;;;;13.10;71.60;;;;;;5009020;28;20004;-79
2022/05/13 01:48:13;;;;;;;;;;;13.10;71.80;;;;;;5011450;28;20012;-79
2022/05/13 01:50:38;;;;;;;;;;;13.00;72.00;;;;;;5007524;28;19924;-79
2022/05/13 01:53:04;;;;;;;;;;;13.00;70.90;;;;;;5006378;28;19917;-79
2022/05/13 01:55:30;;;;;;;;;;;13.00;71.10;;;;;;5006025;28;19913;-79
2022/05/13 01:57:55;;;;;;;;;;;13.00;71.30;;;;;;5006739;28;19920;-79
2022/05/13 02:00:22;;;;;;;;;;;13.00;70.40;;;;;;5004424;28;19914;-79
2022/05/13 02:05:31;;;;;;;;;;;13.10;69.30;;;;;;5004878;28;19920;-79
2022/05/13 02:07:57;;;;;;;;;;;13.10;70.10;;;;;;5018008;28;20282;-78
2022/05/13 02:10:22;;;;;;;;;;;13.00;69.80;;;;;;5008643;28;19971;-79
2022/05/13 02:12:48;;;;;;;;;;;13.00;70.00;;;;;;4989733;28;19944;-78
2022/05/13 02:15:14;;;;;;;;;;;12.90;70.20;;;;;;5008654;28;19925;-79
2022/05/13 02:17:39;;;;;;;;;;;12.70;70.90;;;;;;5013696;28;20123;-79
2022/05/13 02:20:06;;;;;;;;;;;12.70;70.90;;;;;;5010124;28;20413;-80
2022/05/13 02:22:32;;;;;;;;;;;12.70;71.30;;;;;;5008488;28;19920;-79
2022/05/13 02:24:57;;;;;;;;;;;12.60;71.40;;;;;;5007636;28;19914;-80
2022/05/13 02:27:22;;;;;;;;;;;12.70;71.40;;;;;;4994631;28;19937;-79
2022/05/13 02:29:48;;;;;;;;;;;12.60;71.50;;;;;;4992532;28;20468;-79
2022/05/13 02:32:13;;;;;;;;;;;12.50;72.10;;;;;;4990526;28;19924;-79
2022/05/13 02:34:39;;;;;;;;;;;12.50;72.00;;;;;;4991461;28;19921;-79
2022/05/13 02:37:04;;;;;;;;;;;12.40;71.90;;;;;;5010909;28;19924;-79
2022/05/13 02:39:30;;;;;;;;;;;12.30;72.70;;;;;;5008822;28;20274;-80
2022/05/13 02:41:55;;;;;;;;;;;12.30;72.90;;;;;;4993133;28;20298;-79
2022/05/13 02:44:21;;;;;;;;;;;12.20;73.10;;;;;;5010551;28;19913;-79
2022/05/13 02:46:47;;;;;;;;;;;12.20;73.60;;;;;;5011318;28;19914;-79
2022/05/13 02:49:13;;;;;;;;;;;12.10;73.70;;;;;;4990593;28;19921;-79
2022/05/13 02:51:40;;;;;;;;;;;12.10;72.90;;;;;;5025433;28;19913;-80
2022/05/13 02:54:05;;;;;;;;;;;12.10;73.20;;;;;;5009618;28;20011;-79
2022/05/13 02:56:31;;;;;;;;;;;12.10;73.00;;;;;;5004658;28;19917;-80
2022/05/13 02:58:56;;;;;;;;;;;12.10;73.00;;;;;;5026993;28;19973;-80
2022/05/13 03:01:22;;;;;;;;;;;12.10;73.10;;;;;;5031072;28;19902;-80
2022/05/13 03:03:48;;;;;;;;;;;12.20;73.10;;;;;;5015202;28;19989;-79
2022/05/13 03:06:14;;;;;;;;;;;12.20;72.70;;;;;;5004375;28;19976;-79
2022/05/13 03:08:39;;;;;;;;;;;12.20;72.20;;;;;;5003543;28;20064;-79
2022/05/13 03:11:05;;;;;;;;;;;12.20;72.20;;;;;;5013899;28;20333;-79
2022/05/13 03:13:30;;;;;;;;;;;12.10;72.40;;;;;;5007991;28;19932;-79
2022/05/13 03:16:01;;;;;;;;;;;12.20;72.70;;;;;;5004016;28;19926;-79
2022/05/13 03:18:27;;;;;;;;;;;12.10;72.20;;;;;;5006625;28;20004;-78
2022/05/13 03:20:52;;;;;;;;;;;12.10;72.60;;;;;;5009539;28;19960;-79
2022/05/13 03:23:18;;;;;;;;;;;12.00;72.70;;;;;;5007778;28;20337;-79
2022/05/13 03:25:43;;;;;;;;;;;12.00;72.90;;;;;;5002231;28;19939;-79
2022/05/13 03:28:10;;;;;;;;;;;12.00;73.40;;;;;;5004916;28;19979;-78
2022/05/13 03:30:36;;;;;;;;;;;12.00;73.70;;;;;;5007349;28;19945;-79
2022/05/13 03:33:01;;;;;;;;;;;12.10;73.00;;;;;;4999527;28;19963;-79
2022/05/13 03:35:27;;;;;;;;;;;12.10;72.30;;;;;;5007198;28;19914;-79
2022/05/13 03:37:52;;;;;;;;;;;12.10;72.10;;;;;;5011138;28;19913;-79
2022/05/13 03:40:18;;;;;;;;;;;12.20;71.70;;;;;;5008937;28;19914;-79
2022/05/13 03:42:44;;;;;;;;;;;12.40;70.40;;;;;;5005959;28;20396;-79
2022/05/13 03:45:10;;;;;;;;;;;12.30;70.30;;;;;;5003116;28;19993;-79
2022/05/13 03:47:35;;;;;;;;;;;12.30;69.70;;;;;;5004158;28;19917;-78
2022/05/13 03:50:02;;;;;;;;;;;12.30;69.20;;;;;;5024943;28;19937;-80
2022/05/13 03:52:28;;;;;;;;;;;12.30;69.10;;;;;;5003849;28;19913;-81
2022/05/13 03:54:53;;;;;;;;;;;12.30;68.90;;;;;;5009628;28;19913;-79
2022/05/13 03:57:19;;;;;;;;;;;12.30;68.90;;;;;;5004298;28;19914;-80
2022/05/13 03:59:45;;;;;;;;;;;12.30;69.20;;;;;;5006684;28;19922;-79
2022/05/13 04:02:10;;;;;;;;;;;12.30;68.60;;;;;;5003518;28;19942;-80
2022/05/13 04:08:56;;;;;;;;;;;12.20;69.10;;;;;;5003412;28;19983;-80
2022/05/13 04:10:06;;;;;;;;;;;12.30;68.50;;;;;;5007015;28;20416;-78
2022/05/13 04:18:00;;;;;;;;;;;12.20;69.00;;;;;;4999350;28;19929;-79
2022/05/13 04:20:26;;;;;;;;;;;12.30;68.80;;;;;;5005011;28;19914;-80
2022/05/13 04:22:51;;;;;;;;;;;12.20;69.40;;;;;;5006259;28;19989;-80
2022/05/13 04:25:17;;;;;;;;;;;12.10;69.80;;;;;;5005966;28;19957;-80
2022/05/13 04:27:43;;;;;;;;;;;12.20;69.70;;;;;;4997007;28;20037;-80
2022/05/13 04:30:09;;;;;;;;;;;12.20;69.60;;;;;;4990908;28;20048;-80
2022/05/13 04:32:34;;;;;;;;;;;12.20;69.80;;;;;;5004187;28;19940;-80
2022/05/13 04:35:00;;;;;;;;;;;12.40;69.50;;;;;;5003568;28;20460;-81
2022/05/13 04:37:25;;;;;;;;;;;12.20;69.60;;;;;;5004131;28;19913;-80
2022/05/13 04:39:53;;;;;;;;;;;12.30;69.80;;;;;;5011334;28;19968;-80
2022/05/13 04:45:07;;;;;;;;;;;12.20;69.90;;;;;;5006779;28;20107;-80
2022/05/13 04:50:17;;;;;;;;;;;12.20;69.60;;;;;;5009439;28;19921;-80
2022/05/13 04:52:42;;;;;;;;;;;12.30;69.80;;;;;;5004390;28;19913;-79
2022/05/13 04:55:08;;;;;;;;;;;12.40;69.40;;;;;;4994065;28;19917;-80
2022/05/13 04:57:34;;;;;;;;;;;12.60;69.00;;;;;;5007254;28;20063;-81
2022/05/13 04:59:59;;;;;;;;;;;12.90;68.50;;;;;;5005030;28;20098;-80
2022/05/13 05:02:25;;;;;;;;;;;13.00;67.10;;;;;;5006990;28;19914;-79
2022/05/13 05:04:50;;;;;;;;;;;13.00;67.10;;;;;;5009093;28;19921;-79
2022/05/13 05:07:16;;;;;;;;;;;13.10;67.50;;;;;;5008028;28;19924;-80
2022/05/13 05:09:41;;;;;;;;;;;13.00;67.20;;;;;;4990568;28;21143;-80
2022/05/13 05:12:09;;;;;;;;;;;12.90;67.70;;;;;;5011478;28;19956;-79
2022/05/13 05:14:34;;;;;;;;;;;12.90;67.60;;;;;;5006270;28;20008;-79
2022/05/13 05:17:00;;;;;;;;;;;12.90;67.80;;;;;;5010989;28;19963;-79
2022/05/13 05:19:25;;;;;;;;;;;13.00;67.60;;;;;;4993134;28;19992;-80
2022/05/13 05:21:51;;;;;;;;;;;12.90;67.90;;;;;;5006188;28;19921;-79
2022/05/13 05:24:16;;;;;;;;;;;13.00;67.90;;;;;;5005293;28;19920;-80
2022/05/13 05:26:42;;;;;;;;;;;13.00;68.10;;;;;;5005085;28;19982;-80
2022/05/13 05:29:08;;;;;;;;;;;13.10;67.90;;;;;;5013597;28;20424;-79
2022/05/13 05:31:33;;;;;;;;;;;13.10;67.80;;;;;;4998505;28;19948;-78
2022/05/13 05:33:59;;;;;;;;;;;13.10;67.60;;;;;;4992033;28;20399;-78
2022/05/13 05:36:24;;;;;;;;;;;13.10;68.20;;;;;;4989220;28;19952;-79
2022/05/13 05:38:50;;;;;;;;;;;13.20;68.20;;;;;;5004241;28;20463;-80
2022/05/13 05:41:15;;;;;;;;;;;13.10;68.00;;;;;;5000792;28;19926;-78
2022/05/13 05:43:41;;;;;;;;;;;13.00;68.20;;;;;;5004753;28;20520;-79
2022/05/13 05:46:06;;;;;;;;;;;13.20;68.30;;;;;;4995919;28;20346;-80
2022/05/13 05:48:32;;;;;;;;;;;13.30;67.80;;;;;;4994583;28;19926;-79
2022/05/13 05:50:58;;;;;;;;;;;13.30;67.90;;;;;;5014042;28;19948;-79
2022/05/13 05:59:09;;;;;;;;;;;13.40;68.10;;;;;;5001633;28;20020;-79
2022/05/13 06:01:35;;;;;;;;;;;13.30;68.40;;;;;;4990538;28;19913;-78
2022/05/13 06:04:01;;;;;;;;;;;13.20;68.60;;;;;;5006278;28;20274;-79
2022/05/13 06:06:26;;;;;;;;;;;13.30;68.60;;;;;;5011908;28;19917;-79
2022/05/13 06:08:55;;;;;;;;;;;13.30;68.70;;;;;;5003342;28;19925;-80
2022/05/13 06:11:23;;;;;;;;;;;13.50;68.70;;;;;;5013510;28;20005;-79
2022/05/13 06:13:55;;;;;;;;;;;13.60;67.90;;;;;;5009239;28;19920;-80
2022/05/13 06:16:24;;;;;;;;;;;13.60;68.30;;;;;;5001897;28;19914;-80
2022/05/13 06:18:50;;;;;;;;;;;13.60;68.20;;;;;;4996972;28;19921;-82
2022/05/13 06:21:15;;;;;;;;;;;13.60;67.80;;;;;;5003344;28;19947;-80
2022/05/13 06:23:41;;;;;;;;;;;13.60;67.80;;;;;;5006076;28;20016;-79
2022/05/13 06:26:06;;;;;;;;;;;13.50;68.40;;;;;;5005844;28;19917;-80
2022/05/13 06:28:32;;;;;;;;;;;13.50;68.60;;;;;;5010051;28;19924;-80
2022/05/13 06:30:58;;;;;;;;;;;13.40;68.90;;;;;;5007939;28;19953;-79
2022/05/13 06:33:24;;;;;;;;;;;13.30;69.00;;;;;;5010635;28;19948;-80
2022/05/13 06:35:51;;;;;;;;;;;13.50;69.30;;;;;;5017479;28;19969;-80
2022/05/13 06:38:20;;;;;;;;;;;13.60;69.10;;;;;;5010400;28;20326;-79
2022/05/13 06:40:53;;;;;;;;;;;13.70;68.50;;;;;;5007540;28;20587;-80
2022/05/13 06:43:19;;;;;;;;;;;13.80;68.40;;;;;;5006648;28;19913;-79
2022/05/13 06:45:45;;;;;;;;;;;13.90;68.00;;;;;;5002653;28;19921;-79
2022/05/13 06:48:10;;;;;;;;;;;14.00;67.90;;;;;;5004820;28;19921;-80
2022/05/13 06:50:37;;;;;;;;;;;13.90;67.50;;;;;;5013410;28;19956;-79
2022/05/13 06:53:02;;;;;;;;;;;13.90;67.60;;;;;;5014435;28;19913;-80
2022/05/13 06:55:28;;;;;;;;;;;13.90;67.30;;;;;;5014544;28;19909;-80
2022/05/13 06:57:53;;;;;;;;;;;14.00;67.30;;;;;;5014784;28;19913;-79
2022/05/13 07:00:19;;;;;;;;;;;14.10;66.90;;;;;;5002973;28;19968;-79
2022/05/13 07:02:44;;;;;;;;;;;14.10;67.00;;;;;;5002794;28;19920;-79
2022/05/13 07:05:11;;;;;;;;;;;14.20;66.50;;;;;;5011130;28;19917;-79
2022/05/13 07:07:37;;;;;;;;;;;14.30;66.90;;;;;;5016290;28;19978;-80
2022/05/13 07:10:03;;;;;;;;;;;14.50;66.10;;;;;;4998976;28;19917;-80
2022/05/13 07:12:29;;;;;;;;;;;14.40;65.80;;;;;;5014520;28;20089;-81
2022/05/13 07:14:57;;;;;;;;;;;14.40;65.80;;;;;;5004511;28;21436;-81
2022/05/13 07:17:22;;;;;;;;;;;14.50;64.80;;;;;;5013830;28;19925;-80
2022/05/13 07:19:48;;;;;;;;;;;14.70;65.00;;;;;;5027932;28;19933;-80
2022/05/13 07:22:13;;;;;;;;;;;15.10;63.40;;;;;;5013044;28;19945;-80
2022/05/13 07:24:39;;;;;;;;;;;15.30;62.70;;;;;;5003242;28;19913;-82
2022/05/13 07:27:04;;;;;;;;;;;15.50;61.80;;;;;;5006572;28;20273;-83
2022/05/13 07:29:30;;;;;;;;;;;15.70;61.60;;;;;;5030647;23;20271;-82
2022/05/13 07:31:55;;;;;;;;;;;15.60;61.50;;;;;;5010264;28;19920;-82
2022/05/13 07:34:22;;;;;;;;;;;15.60;61.40;;;;;;5006390;28;20408;-81
2022/05/13 07:36:48;;;;;;;;;;;15.70;60.90;;;;;;5022152;28;19932;-82
2022/05/13 07:41:58;;;;;;;;;;;15.90;61.10;;;;;;5010370;28;20411;-82
2022/05/13 07:44:24;;;;;;;;;;;16.10;60.60;;;;;;4990458;28;19910;-82
2022/05/13 07:46:51;;;;;;;;;;;16.20;59.20;;;;;;4992678;28;19949;-82
2022/05/13 07:49:17;;;;;;;;;;;16.10;59.30;;;;;;4990312;28;19928;-82
2022/05/13 07:51:42;;;;;;;;;;;16.10;59.70;;;;;;5007063;28;20147;-82
2022/05/13 07:54:08;;;;;;;;;;;16.30;59.80;;;;;;5015802;28;19918;-82
2022/05/13 07:56:33;;;;;;;;;;;16.50;58.70;;;;;;5007607;28;19959;-82
2022/05/13 07:59:00;;;;;;;;;;;16.70;58.30;;;;;;5024929;28;19917;-82
2022/05/13 08:01:26;;;;;;;;;;;16.70;55.80;;;;;;5011052;28;19917;-82
2022/05/13 08:03:51;;;;;;;;;;;16.90;56.50;;;;;;4993591;28;19914;-82
2022/05/13 08:06:17;;;;;;;;;;;16.90;55.80;;;;;;4991129;28;20396;-82
2022/05/13 08:08:43;;;;;;;;;;;16.70;55.70;;;;;;5002537;28;20012;-81
2022/05/13 08:11:10;;;;;;;;;;;16.70;55.80;;;;;;5006166;28;19920;-82
2022/05/13 08:13:36;;;;;;;;;;;16.60;56.00;;;;;;5003242;28;19913;-82
2022/05/13 08:16:02;;;;;;;;;;;16.70;57.00;;;;;;5005623;28;20313;-82
2022/05/13 08:18:28;;;;;;;;;;;16.70;56.60;;;;;;5010446;28;19992;-81
2022/05/13 08:20:53;;;;;;;;;;;16.60;56.40;;;;;;5007814;28;20381;-82
2022/05/13 08:23:19;;;;;;;;;;;16.70;56.20;;;;;;5005530;28;20308;-81
2022/05/13 08:25:45;;;;;;;;;;;16.80;55.10;;;;;;5002945;28;19914;-82
2022/05/13 08:28:11;;;;;;;;;;;16.70;54.90;;;;;;5004102;28;19999;-81
2022/05/13 08:30:37;;;;;;;;;;;16.80;56.40;;;;;;5016155;28;19922;-81
2022/05/13 08:33:08;;;;;;;;;;;16.80;55.90;;;;;;4998736;28;20012;-80
2022/05/13 08:35:34;;;;;;;;;;;16.80;54.60;;;;;;5008666;28;19913;-81
2022/05/13 08:38:00;;;;;;;;;;;16.60;55.90;;;;;;4999544;28;19914;-81
2022/05/13 08:40:45;;;;;;;;;;;16.60;55.70;;;;;;5000824;28;19928;-82
2022/05/13 08:43:13;;;;;;;;;;;16.80;55.70;;;;;;5009570;28;19914;-82
2022/05/13 08:45:41;;;;;;;;;;;16.70;56.60;;;;;;4992425;28;20356;-81
2022/05/13 08:48:08;;;;;;;;;;;16.90;56.50;;;;;;5021126;28;19924;-81
2022/05/13 08:50:39;;;;;;;;;;;17.00;54.80;;;;;;5023699;28;20028;-81
2022/05/13 08:53:34;;;;;;;;;;;16.90;56.40;;;;;;5008431;28;19922;-83
2022/05/13 08:56:03;;;;;;;;;;;16.70;54.80;;;;;;4971981;28;19976;-81
2022/05/13 08:58:32;;;;;;;;;;;16.60;54.40;;;;;;5007637;28;19961;-80
2022/05/13 09:00:59;;;;;;;;;;;16.60;55.00;;;;;;5009391;28;19917;-81
2022/05/13 09:03:24;;;;;;;;;;;16.80;55.10;;;;;;5002354;28;20002;-81
2022/05/13 09:05:54;;;;;;;;;;;17.00;54.40;;;;;;4988884;28;19972;-81
2022/05/13 09:08:21;;;;;;;;;;;17.30;54.20;;;;;;5005280;28;20361;-81
2022/05/13 09:10:54;;;;;;;;;;;17.50;53.10;;;;;;4988976;28;20399;-81
2022/05/13 09:13:39;;;;;;;;;;;17.40;53.10;;;;;;5005019;28;19918;-80
2022/05/13 09:16:07;;;;;;;;;;;17.30;53.10;;;;;;4993118;28;19945;-79
2022/05/13 09:18:34;;;;;;;;;;;17.30;52.80;;;;;;5032720;28;19960;-79
2022/05/13 09:21:09;;;;;;;;;;;17.30;53.30;;;;;;5008244;28;19920;-79
2022/05/13 09:23:34;;;;;;;;;;;17.40;53.70;;;;;;5010758;28;19928;-80
2022/05/13 09:26:06;;;;;;;;;;;17.60;52.80;;;;;;5001925;28;19917;-81
2022/05/13 09:28:35;;;;;;;;;;;17.70;51.30;;;;;;4996266;28;19932;-80
2022/05/13 09:31:05;;;;;;;;;;;17.60;51.20;;;;;;4995313;28;19924;-80
2022/05/13 09:33:33;;;;;;;;;;;17.70;51.50;;;;;;4990155;28;20040;-80
2022/05/13 09:36:00;;;;;;;;;;;17.90;50.90;;;;;;4994390;28;19964;-80
2022/05/13 09:38:28;;;;;;;;;;;17.70;50.00;;;;;;5011301;28;20446;-80
2022/05/13 09:41:01;;;;;;;;;;;18.00;50.10;;;;;;5001905;28;19961;-80
2022/05/13 09:43:36;;;;;;;;;;;18.00;49.80;;;;;;5004433;28;19920;-81
2022/05/13 09:46:03;;;;;;;;;;;18.00;49.80;;;;;;5002668;28;19952;-80
2022/05/13 09:48:28;;;;;;;;;;;17.80;50.70;;;;;;5004653;28;19972;-79
2022/05/13 09:50:55;;;;;;;;;;;17.90;51.20;;;;;;4994292;28;19922;-80
2022/05/13 09:53:21;;;;;;;;;;;17.70;50.50;;;;;;5010914;28;20424;-80
2022/05/13 09:55:47;;;;;;;;;;;17.60;50.40;;;;;;4991051;28;19960;-80
2022/05/13 09:58:20;;;;;;;;;;;17.60;51.50;;;;;;5008097;28;19917;-79
2022/05/13 10:00:52;;;;;;;;;;;17.50;52.10;;;;;;5005112;28;19968;-80
2022/05/13 10:03:22;;;;;;;;;;;17.50;52.70;;;;;;5007599;28;19964;-79
2022/05/13 10:06:02;;;;;;;;;;;17.60;52.80;;;;;;5006712;28;20303;-79
2022/05/13 10:08:28;;;;;;;;;;;17.80;52.00;;;;;;5006549;28;19918;-79
2022/05/13 10:13:59;;;;;;;;;;;18.20;51.40;;;;;;5004464;28;19936;-80
2022/05/13 10:16:31;;;;;;;;;;;18.30;51.70;;;;;;5003550;28;19999;-80
2022/05/13 10:19:09;;;;;;;;;;;18.50;51.90;;;;;;5005642;28;20009;-80
2022/05/13 10:21:53;;;;;;;;;;;18.70;52.20;;;;;;5005373;28;19922;-79
2022/05/13 10:24:38;;;;;;;;;;;18.70;50.80;;;;;;4989794;28;19918;-79
2022/05/13 10:27:07;;;;;;;;;;;18.60;50.80;;;;;;5007828;28;20412;-79
2022/05/13 10:29:38;;;;;;;;;;;18.50;48.40;;;;;;4996946;28;19918;-79
2022/05/13 10:32:11;;;;;;;;;;;18.30;48.40;;;;;;5018171;28;19922;-79
2022/05/13 10:34:39;;;;;;;;;;;18.00;49.30;;;;;;5016878;28;19944;-82
2022/05/13 10:37:10;;;;;;;;;;;17.90;49.50;;;;;;5035234;28;19912;-83
2022/05/13 10:39:35;;;;;;;;;;;17.90;49.60;;;;;;5033076;28;19925;-82
2022/05/13 10:42:04;;;;;;;;;;;17.90;50.90;;;;;;5013057;28;19937;-82
2022/05/13 10:44:32;;;;;;;;;;;18.10;51.10;;;;;;5013645;28;19914;-83
2022/05/13 10:46:59;;;;;;;;;;;18.10;51.40;;;;;;5015972;28;19917;-82
2022/05/13 10:49:32;;;;;;;;;;;18.20;50.40;;;;;;5022383;28;19929;-82
2022/05/13 10:52:20;;;;;;;;;;;18.30;50.60;;;;;;5011541;28;19940;-82
2022/05/13 10:54:56;;;;;;;;;;;18.30;49.20;;;;;;5014119;28;20009;-82
2022/05/13 10:57:40;;;;;;;;;;;18.10;49.50;;;;;;5011366;28;20375;-82
2022/05/13 11:00:07;;;;;;;;;;;18.10;50.70;;;;;;5011682;28;20351;-82
2022/05/13 11:02:51;;;;;;;;;;;18.30;50.80;;;;;;5010114;28;20499;-82
2022/05/13 11:05:35;;;;;;;;;;;18.30;50.90;;;;;;5009655;28;20388;-83
2022/05/13 11:08:17;;;;;;;;;;;18.30;50.70;;;;;;5010344;28;20447;-82
2022/05/13 11:10:55;;;;;;;;;;;18.50;50.40;;;;;;5028059;28;20356;-80
2022/05/13 11:13:31;;;;;;;;;;;18.50;50.60;;;;;;5010327;28;19964;-82
2022/05/13 11:16:00;;;;;;;;;;;18.50;50.10;;;;;;5011243;28;19925;-82
2022/05/13 11:18:44;;;;;;;;;;;18.60;49.90;;;;;;5009827;28;19928;-82
2022/05/13 11:21:16;;;;;;;;;;;18.70;50.10;;;;;;5008337;28;19914;-82
2022/05/13 11:25:54;;;;;;;;;;;18.90;50.60;;;;;;5008539;28;19932;-84
2022/05/13 11:26:35;;;;;;;;;;;19.00;50.20;;;;;;5010276;28;19935;-82
2022/05/13 11:29:07;;;;;;;;;;;18.90;50.20;;;;;;5022407;28;19944;-82
2022/05/13 11:31:40;;;;;;;;;;;18.90;49.70;;;;;;5025054;28;19914;-81
2022/05/13 11:34:08;;;;;;;;;;;19.00;49.40;;;;;;5003033;28;19914;-82
2022/05/13 11:36:53;;;;;;;;;;;19.00;49.60;;;;;;5009359;28;19925;-82
2022/05/13 11:39:31;;;;;;;;;;;19.20;49.00;;;;;;5007760;28;20438;-82
2022/05/13 11:41:59;;;;;;;;;;;19.10;48.10;;;;;;5010011;28;19924;-82
2022/05/13 11:44:37;;;;;;;;;;;18.90;48.60;;;;;;5025174;28;20307;-82
2022/05/13 11:47:13;;;;;;;;;;;18.80;49.50;;;;;;5024681;28;19981;-82
2022/05/13 11:49:43;;;;;;;;;;;18.60;49.90;;;;;;5025900;28;19993;-82
2022/05/13 11:52:11;;;;;;;;;;;18.60;50.40;;;;;;5011202;28;19929;-82
2022/05/13 11:54:37;;;;;;;;;;;18.90;50.30;;;;;;5006959;28;20269;-82
2022/05/13 11:57:23;;;;;;;;;;;19.10;49.80;;;;;;5029304;28;20107;-83
2022/05/13 12:00:07;;;;;;;;;;;19.30;48.80;;;;;;5005821;28;19976;-82
2022/05/13 12:02:34;;;;;;;;;;;19.50;49.00;;;;;;5010107;28;19918;-82
2022/05/13 12:05:00;;;;;;;;;;;19.70;47.60;;;;;;5005418;28;19941;-82
2022/05/13 12:07:30;;;;;;;;;;;19.60;47.60;;;;;;5028662;28;19909;-82
2022/05/13 12:09:57;;;;;;;;;;;19.60;47.70;;;;;;5011470;28;19917;-82
2022/05/13 12:12:38;;;;;;;;;;;19.50;46.20;;;;;;5025583;28;19948;-82
2022/05/13 12:15:10;;;;;;;;;;;19.60;46.70;;;;;;5007225;28;19914;-82
2022/05/13 12:17:41;;;;;;;;;;;19.70;47.00;;;;;;5011465;28;20305;-84
2022/05/13 12:20:25;;;;;;;;;;;19.60;47.20;;;;;;5022139;28;19991;-80
2022/05/13 12:23:03;;;;;;;;;;;19.70;47.90;;;;;;4991961;28;19930;-81
2022/05/13 12:25:29;;;;;;;;;;;19.70;46.90;;;;;;5013877;28;19940;-81
2022/05/13 12:28:13;;;;;;;;;;;19.90;47.30;;;;;;5007386;28;19917;-81
2022/05/13 12:30:42;;;;;;;;;;;20.10;47.70;;;;;;5003914;28;19918;-82
2022/05/13 12:33:20;;;;;;;;;;;20.10;45.40;;;;;;5014543;28;19913;-82
2022/05/13 12:39:02;;;;;;;;;;;20.10;45.80;;;;;;5016700;28;19925;-81
2022/05/13 12:41:43;;;;;;;;;;;19.90;46.40;;;;;;5017267;28;19925;-81
2022/05/13 12:44:12;;;;;;;;;;;19.80;46.30;;;;;;5011839;28;19940;-82
2022/05/13 12:46:41;;;;;;;;;;;19.70;47.60;;;;;;5018611;28;19937;-81
2022/05/13 12:49:12;;;;;;;;;;;19.60;46.80;;;;;;5000303;28;19917;-81
2022/05/13 12:51:42;;;;;;;;;;;19.70;47.00;;;;;;5011819;28;19932;-82
2022/05/13 12:54:09;;;;;;;;;;;19.80;47.00;;;;;;5009580;28;19924;-82
2022/05/13 12:56:36;;;;;;;;;;;19.90;46.40;;;;;;5025155;28;19922;-82
2022/05/13 12:59:20;;;;;;;;;;;20.10;46.30;;;;;;5024891;28;19957;-82
2022/05/13 13:01:48;;;;;;;;;;;20.20;45.80;;;;;;5004102;28;20408;-82
2022/05/13 13:04:17;;;;;;;;;;;20.10;45.10;;;;;;5013146;28;19921;-81
2022/05/13 13:06:46;;;;;;;;;;;20.00;46.10;;;;;;4994724;28;19914;-81
2022/05/13 13:09:18;;;;;;;;;;;20.00;45.80;;;;;;5009645;28;19987;-81
2022/05/13 13:11:52;;;;;;;;;;;19.90;45.80;;;;;;4999321;28;20326;-80
2022/05/13 13:14:23;;;;;;;;;;;20.00;46.00;;;;;;5014147;28;19995;-80
2022/05/13 13:16:54;;;;;;;;;;;19.90;46.30;;;;;;5028851;28;19924;-80
2022/05/13 13:19:23;;;;;;;;;;;20.10;45.50;;;;;;5015525;28;19978;-80
2022/05/13 13:21:58;;;;;;;;;;;20.10;46.10;;;;;;5024185;28;19913;-80
2022/05/13 13:24:26;;;;;;;;;;;20.00;45.70;;;;;;5010287;28;19920;-80
2022/05/13 13:26:51;;;;;;;;;;;20.00;46.00;;;;;;5000114;28;20395;-80
2022/05/13 13:29:23;;;;;;;;;;;20.10;46.40;;;;;;4999310;28;20021;-81
2022/05/13 13:31:51;;;;;;;;;;;20.20;45.50;;;;;;5008581;28;19913;-80
2022/05/13 13:34:25;;;;;;;;;;;20.20;44.70;;;;;;4999853;28;19945;-81
2022/05/13 13:36:53;;;;;;;;;;;20.00;45.20;;;;;;4993980;28;19918;-80
2022/05/13 13:39:19;;;;;;;;;;;20.10;45.60;;;;;;5005199;28;20321;-80
2022/05/13 13:41:46;;;;;;;;;;;20.10;45.70;;;;;;5002347;28;20009;-80
2022/05/13 13:44:13;;;;;;;;;;;20.30;45.40;;;;;;5002288;28;19914;-80
2022/05/13 13:46:43;;;;;;;;;;;20.50;45.40;;;;;;5010184;28;20767;-80
2022/05/13 13:49:13;;;;;;;;;;;20.60;44.80;;;;;;5004958;28;19918;-80
2022/05/13 13:51:43;;;;;;;;;;;20.50;43.80;;;;;;5003234;28;19918;-79
2022/05/13 13:54:11;;;;;;;;;;;20.60;44.40;;;;;;5008809;28;19960;-80
2022/05/13 13:56:42;;;;;;;;;;;20.70;44.30;;;;;;5021342;28;19917;-80
2022/05/13 13:59:14;;;;;;;;;;;20.90;44.60;;;;;;5004997;28;19913;-80
2022/05/13 14:01:50;;;;;;;;;;;20.80;44.40;;;;;;5020533;28;19913;-80
2022/05/13 14:04:20;;;;;;;;;;;20.70;43.80;;;;;;5019611;28;19980;-81
2022/05/13 14:06:46;;;;;;;;;;;20.60;44.10;;;;;;5010828;28;19924;-80
2022/05/13 14:09:33;;;;;;;;;;;20.70;43.70;;;;;;5009515;28;20442;-80
2022/05/13 14:11:59;;;;;;;;;;;20.70;43.70;;;;;;5008578;28;19920;-82
2022/05/13 14:14:25;;;;;;;;;;;20.80;43.80;;;;;;5009234;28;19917;-81
2022/05/13 14:16:57;;;;;;;;;;;20.90;43.70;;;;;;4995914;28;19972;-81
2022/05/13 14:19:24;;;;;;;;;;;20.70;44.50;;;;;;5010899;28;19922;-81
2022/05/13 14:21:55;;;;;;;;;;;20.70;45.60;;;;;;5013459;28;19922;-81
2022/05/13 14:24:31;;;;;;;;;;;20.60;45.30;;;;;;5005224;28;19999;-82
2022/05/13 14:27:00;;;;;;;;;;;20.60;44.30;;;;;;4991192;28;20402;-82
2022/05/13 14:29:31;;;;;;;;;;;20.60;45.30;;;;;;5000612;28;19925;-83
2022/05/13 14:32:02;;;;;;;;;;;20.60;44.80;;;;;;4986478;28;19924;-84
2022/05/13 14:34:28;;;;;;;;;;;20.60;44.70;;;;;;5007576;28;19932;-81
2022/05/13 14:36:56;;;;;;;;;;;21.00;44.70;;;;;;5016553;28;19929;-81
2022/05/13 14:42:17;;;;;;;;;;;20.90;43.60;;;;;;5029414;28;19921;-86
2022/05/13 14:44:44;;;;;;;;;;;20.70;44.00;;;;;;4996186;28;19992;-83
2022/05/13 14:47:25;;;;;;;;;;;20.60;44.50;;;;;;5008470;28;20031;-83
2022/05/13 14:49:52;;;;;;;;;;;20.60;44.90;;;;;;4997869;28;19933;-84
2022/05/13 14:52:38;;;;;;;;;;;20.60;44.90;;;;;;5025210;28;19909;-84
2022/05/13 14:55:13;;;;;;;;;;;20.50;45.00;;;;;;4999775;28;19957;-84
2022/05/13 14:57:45;;;;;;;;;;;20.60;44.00;;;;;;5008817;28;19914;-84